createdAt,value
2023-02-27T00:00:32.964Z,99162.75
2023-02-27T00:01:35.123Z,99167.97
2023-02-27T00:02:36.981Z,99166.09
2023-02-27T00:03:38.919Z,99171.50
2023-02-27T00:04:40.926Z,99172.22
2023-02-27T00:05:42.755Z,99167.84
2023-02-27T00:06:44.477Z,99169.59
2023-02-27T00:07:46.307Z,99167.13
2023-02-27T00:08:48.122Z,99173.16
2023-02-27T00:09:49.927Z,99173.97
2023-02-27T00:10:51.831Z,99161.94
2023-02-27T00:11:53.551Z,99171.50
2023-02-27T00:12:55.965Z,99175.06
2023-02-27T00:13:57.843Z,99166.56
2023-02-27T00:14:59.610Z,99166.44
2023-02-27T00:16:01.601Z,99163.97
2023-02-27T00:17:03.420Z,99165.03
2023-02-27T00:18:05.202Z,99167.75
2023-02-27T00:19:07.105Z,99171.19
2023-02-27T00:20:13.865Z,99166.94
2023-02-27T00:21:15.712Z,99166.06
2023-02-27T00:22:17.477Z,99166.06
2023-02-27T00:23:19.252Z,99155.69
2023-02-27T00:24:22.370Z,99165.25
2023-02-27T00:25:24.217Z,99164.34
2023-02-27T00:26:26.432Z,99165.25
2023-02-27T00:27:28.279Z,99173.53
2023-02-27T00:28:30.277Z,99161.38
2023-02-27T00:29:32.012Z,99164.09
2023-02-27T00:30:34.230Z,99166.94
2023-02-27T00:31:36.183Z,99171.06
2023-02-27T00:32:38.354Z,99158.06
2023-02-27T00:33:40.268Z,99164.34
2023-02-27T00:34:42.062Z,99167.03
2023-02-27T00:35:43.810Z,99167.78
2023-02-27T00:36:45.560Z,99154.88
2023-02-27T00:37:47.718Z,99157.38
2023-02-27T00:38:49.478Z,99163.50
2023-02-27T00:39:51.348Z,99169.41
2023-02-27T00:40:53.126Z,99162.66
2023-02-27T00:41:54.942Z,99159.16
2023-02-27T00:42:56.688Z,99154.88
2023-02-27T00:43:58.483Z,99155.81
2023-02-27T00:45:00.374Z,99154.88
2023-02-27T00:46:02.154Z,99159.03
2023-02-27T00:47:03.977Z,99152.28
2023-02-27T00:48:05.772Z,99161.84
2023-02-27T00:49:07.540Z,99168.94
2023-02-27T00:50:10.650Z,99163.75
2023-02-27T00:51:13.151Z,99154.28
2023-02-27T00:52:14.963Z,99161.38
2023-02-27T00:53:17.343Z,99157.13
2023-02-27T00:54:19.429Z,99157.97
2023-02-27T00:55:21.262Z,99155.38
2023-02-27T00:56:23.143Z,99163.03
2023-02-27T00:57:25.019Z,99158.66
2023-02-27T00:58:26.853Z,99158.09
2023-02-27T00:59:28.719Z,99155.38
2023-02-27T01:00:30.835Z,99157.25
2023-02-27T01:01:32.675Z,99152.91
2023-02-27T01:02:35.278Z,99153.84
2023-02-27T01:03:37.233Z,99162.47
2023-02-27T01:04:39.033Z,99156.44
2023-02-27T01:05:40.867Z,99154.66
2023-02-27T01:06:42.585Z,99159.03
2023-02-27T01:07:44.326Z,99153.00
2023-02-27T01:08:46.380Z,99155.00
2023-02-27T01:09:48.189Z,99161.63
2023-02-27T01:10:49.953Z,99156.53
2023-02-27T01:11:52.462Z,99159.38
2023-02-27T01:12:54.218Z,99160.44
2023-02-27T01:13:56.952Z,99150.75
2023-02-27T01:14:58.857Z,99157.72
2023-02-27T01:16:00.800Z,99159.50
2023-02-27T01:17:03.504Z,99151.81
2023-02-27T01:18:05.244Z,99147.34
2023-02-27T01:19:07.135Z,99150.75
2023-02-27T01:20:11.913Z,99149.94
2023-02-27T01:21:13.691Z,99155.13
2023-02-27T01:22:15.534Z,99155.81
2023-02-27T01:23:17.256Z,99156.91
2023-02-27T01:24:19.784Z,99145.81
2023-02-27T01:25:21.552Z,99153.59
2023-02-27T01:26:23.357Z,99151.72
2023-02-27T01:27:25.167Z,99149.22
2023-02-27T01:28:27.173Z,99164.81
2023-02-27T01:29:28.953Z,99158.78
2023-02-27T01:30:30.735Z,99158.66
2023-02-27T01:31:32.613Z,99156.91
2023-02-27T01:32:34.537Z,99153.47
2023-02-27T01:33:36.396Z,99162.91
2023-02-27T01:34:38.262Z,99158.66
2023-02-27T01:35:40.563Z,99161.41
2023-02-27T01:36:42.364Z,99163.03
2023-02-27T01:37:44.590Z,99160.44
2023-02-27T01:38:46.436Z,99157.84
2023-02-27T01:39:48.194Z,99159.63
2023-02-27T01:40:50.009Z,99156.06
2023-02-27T01:41:52.146Z,99156.06
2023-02-27T01:42:54.570Z,99157.97
2023-02-27T01:43:59.887Z,99157.03
2023-02-27T01:45:30.679Z,99157.84
2023-02-27T01:46:34.386Z,99154.66
2023-02-27T01:47:43.056Z,99161.63
2023-02-27T01:48:45.139Z,99153.03
2023-02-27T01:49:46.945Z,99166.91
2023-02-27T01:51:03.671Z,99164.22
2023-02-27T01:52:11.039Z,99163.50
2023-02-27T01:53:14.703Z,99159.13
2023-02-27T01:54:22.442Z,99157.47
2023-02-27T01:55:27.183Z,99158.44
2023-02-27T01:56:32.227Z,99154.88
2023-02-27T01:57:36.039Z,99154.19
2023-02-27T01:58:38.882Z,99162.69
2023-02-27T01:59:43.216Z,99163.63
2023-02-27T02:00:46.308Z,99168.81
2023-02-27T02:01:48.768Z,99158.56
2023-02-27T02:03:45.087Z,99159.13
2023-02-27T02:04:48.434Z,99163.88
2023-02-27T02:05:53.374Z,99162.91
2023-02-27T02:07:04.537Z,99155.25
2023-02-27T02:08:07.506Z,99168.34
2023-02-27T02:09:11.209Z,99157.97
2023-02-27T02:10:16.102Z,99164.00
2023-02-27T02:11:20.717Z,99159.88
2023-02-27T02:12:28.686Z,99159.75
2023-02-27T02:13:31.649Z,99160.69
2023-02-27T02:14:33.470Z,99162.56
2023-02-27T02:15:41.817Z,99159.88
2023-02-27T02:17:11.191Z,99161.50
2023-02-27T02:18:36.174Z,99166.91
2023-02-27T02:19:55.285Z,99162.66
2023-02-27T02:21:03.958Z,99168.94
2023-02-27T02:22:40.773Z,99163.63
2023-02-27T02:24:10.334Z,99171.53
2023-02-27T02:25:56.726Z,99168.81
2023-02-27T02:27:18.921Z,99175.91
2023-02-27T02:28:57.659Z,99173.19
2023-02-27T02:30:08.236Z,99176.84
2023-02-27T02:31:50.899Z,99175.78
2023-02-27T02:33:12.531Z,99173.19
2023-02-27T02:34:51.033Z,99174.00
2023-02-27T02:36:23.046Z,99174.13
2023-02-27T02:38:14.498Z,99175.78
2023-02-27T02:39:43.430Z,99171.66
2023-02-27T02:41:13.952Z,99175.06
2023-02-27T02:42:22.236Z,99175.31
2023-02-27T02:44:11.939Z,99179.44
2023-02-27T02:45:27.918Z,99176.13
2023-02-27T02:46:47.465Z,99176.03
2023-02-27T02:48:33.905Z,99176.84
2023-02-27T02:50:13.153Z,99170.13
2023-02-27T02:51:36.895Z,99171.88
2023-02-27T02:52:51.800Z,99172.84
2023-02-27T02:54:01.716Z,99176.34
2023-02-27T02:55:35.524Z,99175.19
2023-02-27T02:56:52.781Z,99174.38
2023-02-27T02:57:59.609Z,99178.75
2023-02-27T02:59:36.274Z,99176.72
2023-02-27T03:00:51.738Z,99170.00
2023-02-27T03:02:03.678Z,99181.09
2023-02-27T03:03:25.030Z,99186.16
2023-02-27T03:04:42.980Z,99174.13
2023-02-27T03:06:14.033Z,99175.78
2023-02-27T03:07:34.177Z,99177.44
2023-02-27T03:08:50.008Z,99178.38
2023-02-27T03:10:32.193Z,99180.16
2023-02-27T03:11:40.993Z,99182.03
2023-02-27T03:12:52.530Z,99186.41
2023-02-27T03:14:06.907Z,99186.16
2023-02-27T03:15:39.257Z,99178.25
2023-02-27T03:16:48.817Z,99173.31
2023-02-27T03:18:06.815Z,99181.91
2023-02-27T03:19:25.907Z,99184.63
2023-02-27T03:20:45.357Z,99181.09
2023-02-27T03:22:05.187Z,99188.19
2023-02-27T03:23:16.876Z,99192.53
2023-02-27T03:24:32.058Z,99182.97
2023-02-27T03:25:35.898Z,99190.06
2023-02-27T03:26:44.697Z,99187.47
2023-02-27T03:28:13.528Z,99195.25
2023-02-27T03:29:26.406Z,99191.84
2023-02-27T03:30:56.340Z,99194.53
2023-02-27T03:32:13.254Z,99191.22
2023-02-27T03:33:27.174Z,99194.63
2023-02-27T03:34:41.192Z,99191.22
2023-02-27T03:36:03.019Z,99191.09
2023-02-27T03:37:38.415Z,99189.56
2023-02-27T03:38:51.293Z,99194.06
2023-02-27T03:40:12.492Z,99193.22
2023-02-27T03:41:47.224Z,99195.13
2023-02-27T03:43:28.689Z,99192.66
2023-02-27T03:44:52.457Z,99199.59
2023-02-27T03:46:16.632Z,99209.16
2023-02-27T03:47:18.859Z,99202.53
2023-02-27T03:48:21.062Z,99207.00
2023-02-27T03:49:23.246Z,99202.66
2023-02-27T03:50:25.204Z,99201.94
2023-02-27T03:51:28.808Z,99203.59
2023-02-27T03:52:31.621Z,99205.13
2023-02-27T03:53:46.048Z,99202.66
2023-02-27T03:55:03.194Z,99201.94
2023-02-27T03:56:09.163Z,99207.25
2023-02-27T03:57:13.370Z,99208.19
2023-02-27T03:58:15.363Z,99201.34
2023-02-27T03:59:17.378Z,99197.81
2023-02-27T04:00:25.164Z,99201.13
2023-02-27T04:01:27.537Z,99204.66
2023-02-27T04:02:29.989Z,99212.44
2023-02-27T04:03:39.294Z,99209.72
2023-02-27T04:04:41.219Z,99210.78
2023-02-27T04:05:43.123Z,99217.84
2023-02-27T04:07:23.139Z,99220.34
2023-02-27T04:09:03.199Z,99221.38
2023-02-27T04:10:23.618Z,99215.47
2023-02-27T04:12:10.202Z,99223.25
2023-02-27T04:13:23.831Z,99227.97
2023-02-27T04:14:54.271Z,99219.25
2023-02-27T04:16:31.196Z,99218.63
2023-02-27T04:17:56.560Z,99214.38
2023-02-27T04:19:31.648Z,99216.88
2023-02-27T04:20:48.400Z,99223.00
2023-02-27T04:21:55.988Z,99217.09
2023-02-27T04:23:12.302Z,99221.34
2023-02-27T04:24:23.042Z,99217.94
2023-02-27T04:25:44.492Z,99216.97
2023-02-27T04:27:04.811Z,99218.75
2023-02-27T04:28:10.314Z,99219.09
2023-02-27T04:29:33.210Z,99220.53
2023-02-27T04:30:53.475Z,99214.50
2023-02-27T04:32:07.080Z,99218.03
2023-02-27T04:33:42.633Z,99223.22
2023-02-27T04:34:54.753Z,99219.94
2023-02-27T04:36:06.896Z,99219.94
2023-02-27T04:37:35.712Z,99215.81
2023-02-27T04:38:53.569Z,99217.78
2023-02-27T04:40:09.208Z,99232.41
2023-02-27T04:41:23.407Z,99222.00
2023-02-27T04:42:34.785Z,99215.91
2023-02-27T04:43:40.031Z,99228.88
2023-02-27T04:44:44.689Z,99229.72
2023-02-27T04:45:49.447Z,99221.81
2023-02-27T04:46:54.162Z,99231.38
2023-02-27T04:48:20.120Z,99226.06
2023-02-27T04:49:28.149Z,99233.13
2023-02-27T04:50:51.751Z,99230.53
2023-02-27T04:52:02.582Z,99229.72
2023-02-27T04:53:22.221Z,99226.19
2023-02-27T04:54:51.882Z,99226.19
2023-02-27T04:56:11.155Z,99234.97
2023-02-27T04:57:22.604Z,99231.69
2023-02-27T04:58:33.362Z,99224.59
2023-02-27T04:59:43.118Z,99227.94
2023-02-27T05:00:55.168Z,99229.78
2023-02-27T05:02:16.103Z,99226.38
2023-02-27T05:03:30.535Z,99228.03
2023-02-27T05:04:38.362Z,99222.97
2023-02-27T05:05:45.860Z,99221.31
2023-02-27T05:06:51.040Z,99230.16
2023-02-27T05:08:01.861Z,99226.63
2023-02-27T05:09:22.518Z,99216.13
2023-02-27T05:10:43.310Z,99221.41
2023-02-27T05:11:56.328Z,99224.97
2023-02-27T05:13:09.217Z,99226.03
2023-02-27T05:14:41.849Z,99227.78
2023-02-27T05:15:55.754Z,99227.91
2023-02-27T05:17:28.950Z,99232.16
2023-02-27T05:18:31.308Z,99236.72
2023-02-27T05:19:37.233Z,99226.34
2023-02-27T05:21:29.354Z,99233.81
2023-02-27T05:22:40.871Z,99227.91
2023-02-27T05:24:09.816Z,99225.50
2023-02-27T05:25:37.360Z,99225.41
2023-02-27T05:27:18.201Z,99217.72
2023-02-27T05:28:33.258Z,99226.44
2023-02-27T05:29:46.909Z,99234.22
2023-02-27T05:31:12.635Z,99234.03
2023-02-27T05:32:29.353Z,99231.53
2023-02-27T05:34:00.220Z,99235.69
2023-02-27T05:35:12.578Z,99231.44
2023-02-27T05:36:46.689Z,99243.34
2023-02-27T05:38:19.550Z,99240.75
2023-02-27T05:39:25.447Z,99228.84
2023-02-27T05:40:36.493Z,99242.53
2023-02-27T05:41:50.242Z,99241.59
2023-02-27T05:43:10.842Z,99243.34
2023-02-27T05:44:30.358Z,99243.34
2023-02-27T05:45:36.690Z,99246.06
2023-02-27T05:46:46.223Z,99248.41
2023-02-27T05:47:58.191Z,99249.38
2023-02-27T05:49:09.660Z,99247.59
2023-02-27T05:50:26.364Z,99250.06
2023-02-27T05:51:34.384Z,99246.78
2023-02-27T05:52:39.099Z,99257.97
2023-02-27T05:53:50.996Z,99255.50
2023-02-27T05:55:00.516Z,99244.41
2023-02-27T05:56:06.722Z,99246.06
2023-02-27T05:57:16.556Z,99251.00
2023-02-27T05:58:45.616Z,99247.59
2023-02-27T06:00:17.425Z,99251.97
2023-02-27T06:01:19.223Z,99247.91
2023-02-27T06:02:21.123Z,99245.31
2023-02-27T06:03:23.569Z,99250.31
2023-02-27T06:04:25.418Z,99246.88
2023-02-27T06:05:28.242Z,99254.66
2023-02-27T06:06:31.157Z,99251.13
2023-02-27T06:07:34.985Z,99258.81
2023-02-27T06:08:37.502Z,99256.91
2023-02-27T06:09:39.437Z,99256.09
2023-02-27T06:10:41.162Z,99264.09
2023-02-27T06:11:42.977Z,99258.81
2023-02-27T06:12:45.330Z,99263.88
2023-02-27T06:13:47.135Z,99258.69
2023-02-27T06:14:48.872Z,99259.63
2023-02-27T06:15:50.907Z,99256.09
2023-02-27T06:16:52.673Z,99269.19
2023-02-27T06:17:54.727Z,99263.63
2023-02-27T06:18:56.540Z,99271.78
2023-02-27T06:19:58.309Z,99262.09
2023-02-27T06:21:00.348Z,99258.81
2023-02-27T06:22:02.132Z,99270.13
2023-02-27T06:23:03.893Z,99268.94
2023-02-27T06:24:05.964Z,99270.59
2023-02-27T06:25:08.552Z,99264.69
2023-02-27T06:26:14.088Z,99267.19
2023-02-27T06:27:15.826Z,99280.16
2023-02-27T06:28:17.624Z,99275.78
2023-02-27T06:29:19.474Z,99273.81
2023-02-27T06:30:21.338Z,99274.66
2023-02-27T06:31:23.149Z,99282.50
2023-02-27T06:32:25.764Z,99284.69
2023-02-27T06:33:27.666Z,99285.72
2023-02-27T06:34:29.451Z,99278.78
2023-02-27T06:35:31.778Z,99289.16
2023-02-27T06:36:33.662Z,99282.31
2023-02-27T06:37:35.717Z,99292.47
2023-02-27T06:38:37.505Z,99286.44
2023-02-27T06:39:39.238Z,99284.56
2023-02-27T06:40:41.055Z,99288.81
2023-02-27T06:41:42.804Z,99282.91
2023-02-27T06:42:45.409Z,99284.56
2023-02-27T06:43:47.310Z,99285.38
2023-02-27T06:44:49.157Z,99285.28
2023-02-27T06:45:54.785Z,99285.91
2023-02-27T06:46:56.622Z,99286.72
2023-02-27T06:47:58.405Z,99289.31
2023-02-27T06:49:00.233Z,99282.25
2023-02-27T06:50:02.484Z,99287.56
2023-02-27T06:51:04.866Z,99291.69
2023-02-27T06:52:06.819Z,99289.59
2023-02-27T06:53:08.662Z,99290.41
2023-02-27T06:54:10.491Z,99297.16
2023-02-27T06:55:12.592Z,99286.66
2023-02-27T06:56:14.424Z,99280.41
2023-02-27T06:57:16.177Z,99290.53
2023-02-27T06:58:18.557Z,99285.34
2023-02-27T06:59:20.317Z,99294.72
2023-02-27T07:00:22.716Z,99289.28
2023-02-27T07:01:26.228Z,99291.88
2023-02-27T07:02:27.993Z,99281.38
2023-02-27T07:03:29.712Z,99289.75
2023-02-27T07:04:31.477Z,99283.72
2023-02-27T07:05:33.545Z,99291.75
2023-02-27T07:07:33.394Z,99289.75
2023-02-27T07:07:58.720Z,99287.78
2023-02-27T07:09:06.564Z,99292.97
2023-02-27T07:10:13.278Z,99293.56
2023-02-27T07:11:15.053Z,99293.31
2023-02-27T07:12:16.816Z,99292.28
2023-02-27T07:13:19.798Z,99302.44
2023-02-27T07:14:22.494Z,99301.25
2023-02-27T07:15:24.528Z,99306.25
2023-02-27T07:16:26.619Z,99308.72
2023-02-27T07:17:28.596Z,99299.03
2023-02-27T07:18:30.788Z,99304.94
2023-02-27T07:19:35.786Z,99295.88
2023-02-27T07:20:37.589Z,99296.47
2023-02-27T07:21:39.752Z,99303.19
2023-02-27T07:22:41.911Z,99298.72
2023-02-27T07:23:44.283Z,99302.75
2023-02-27T07:24:46.004Z,99299.09
2023-02-27T07:25:48.670Z,99300.72
2023-02-27T07:26:50.496Z,99302.97
2023-02-27T07:27:52.233Z,99301.94
2023-02-27T07:28:54.748Z,99300.75
2023-02-27T07:29:56.532Z,99301.44
2023-02-27T07:30:58.345Z,99301.69
2023-02-27T07:32:01.497Z,99300.63
2023-02-27T07:33:03.499Z,99303.72
2023-02-27T07:34:05.218Z,99300.03
2023-02-27T07:35:08.569Z,99302.28
2023-02-27T07:36:10.577Z,99296.97
2023-02-27T07:37:12.976Z,99305.25
2023-02-27T07:38:14.737Z,99302.28
2023-02-27T07:39:16.542Z,99307.97
2023-02-27T07:40:18.752Z,99301.81
2023-02-27T07:41:30.068Z,99311.00
2023-02-27T07:42:32.669Z,99303.81
2023-02-27T07:43:34.548Z,99294.81
2023-02-27T07:44:36.466Z,99302.25
2023-02-27T07:45:38.393Z,99308.28
2023-02-27T07:46:40.266Z,99303.69
2023-02-27T07:47:42.212Z,99315.47
2023-02-27T07:48:43.944Z,99308.16
2023-02-27T07:49:45.783Z,99303.41
2023-02-27T07:50:47.539Z,99309.91
2023-02-27T07:51:49.323Z,99305.41
2023-02-27T07:52:52.333Z,99303.41
2023-02-27T07:53:56.504Z,99307.19
2023-02-27T07:54:58.355Z,99314.88
2023-02-27T07:56:00.214Z,99308.31
2023-02-27T07:57:02.006Z,99302.91
2023-02-27T07:58:03.770Z,99314.34
2023-02-27T07:59:05.555Z,99314.78
2023-02-27T08:00:09.897Z,99317.13
2023-02-27T08:01:11.699Z,99307.88
2023-02-27T08:02:13.434Z,99312.69
2023-02-27T08:03:15.423Z,99305.09
2023-02-27T08:04:17.271Z,99314.34
2023-02-27T08:05:19.071Z,99318.88
2023-02-27T08:06:21.308Z,99315.09
2023-02-27T08:07:23.050Z,99313.88
2023-02-27T08:08:24.834Z,99319.16
2023-02-27T08:09:26.698Z,99314.63
2023-02-27T08:10:29.093Z,99317.44
2023-02-27T08:11:30.911Z,99315.13
2023-02-27T08:12:32.957Z,99327.09
2023-02-27T08:14:56.600Z,99321.00
2023-02-27T08:15:58.395Z,99324.03
2023-02-27T08:17:00.576Z,99318.53
2023-02-27T08:18:02.477Z,99323.25
2023-02-27T08:19:04.441Z,99316.44
2023-02-27T08:20:07.465Z,99324.69
2023-02-27T08:21:09.241Z,99326.78
2023-02-27T08:22:12.257Z,99327.19
2023-02-27T08:23:14.023Z,99328.47
2023-02-27T08:24:15.834Z,99323.78
2023-02-27T08:25:17.996Z,99324.78
2023-02-27T08:26:20.911Z,99328.63
2023-02-27T08:27:22.860Z,99324.00
2023-02-27T08:28:25.354Z,99322.50
2023-02-27T08:29:27.955Z,99317.16
2023-02-27T08:30:29.856Z,99327.31
2023-02-27T08:31:31.977Z,99325.81
2023-02-27T08:32:34.399Z,99326.25
2023-02-27T08:33:36.438Z,99327.47
2023-02-27T08:34:38.324Z,99325.31
2023-02-27T08:35:40.176Z,99329.28
2023-02-27T08:36:42.485Z,99328.91
2023-02-27T08:37:44.191Z,99329.16
2023-02-27T08:38:45.961Z,99324.38
2023-02-27T08:39:47.708Z,99319.69
2023-02-27T08:40:53.431Z,99325.38
2023-02-27T08:41:55.306Z,99322.19
2023-02-27T08:42:57.069Z,99321.91
2023-02-27T08:43:58.933Z,99325.63
2023-02-27T08:45:00.976Z,99327.81
2023-02-27T08:46:02.795Z,99321.34
2023-02-27T08:47:04.817Z,99320.94
2023-02-27T08:48:07.110Z,99318.75
2023-02-27T08:49:08.877Z,99326.97
2023-02-27T08:50:12.449Z,99320.22
2023-02-27T08:51:14.181Z,99327.50
2023-02-27T08:52:16.047Z,99324.31
2023-02-27T08:53:17.823Z,99325.56
2023-02-27T08:54:20.576Z,99321.53
2023-02-27T08:55:22.446Z,99322.91
2023-02-27T08:56:28.877Z,99316.16
2023-02-27T08:57:30.976Z,99330.56
2023-02-27T08:58:32.963Z,99322.31
2023-02-27T08:59:34.780Z,99319.81
2023-02-27T09:00:36.661Z,99323.78
2023-02-27T09:01:38.434Z,99325.53
2023-02-27T09:02:40.967Z,99325.91
2023-02-27T09:03:42.758Z,99321.75
2023-02-27T09:04:44.528Z,99324.63
2023-02-27T09:05:49.317Z,99324.19
2023-02-27T09:06:51.130Z,99318.66
2023-02-27T09:07:53.088Z,99324.97
2023-02-27T09:08:56.166Z,99329.75
2023-02-27T09:09:57.966Z,99329.31
2023-02-27T09:10:59.765Z,99335.59
2023-02-27T09:12:01.529Z,99324.69
2023-02-27T09:13:03.406Z,99324.09
2023-02-27T09:14:05.485Z,99326.13
2023-02-27T09:15:08.936Z,99337.72
2023-02-27T09:16:10.678Z,99338.88
2023-02-27T09:17:12.462Z,99339.56
2023-02-27T09:18:14.247Z,99332.44
2023-02-27T09:19:16.041Z,99333.66
2023-02-27T09:20:18.009Z,99341.72
2023-02-27T09:21:20.589Z,99326.38
2023-02-27T09:22:22.494Z,99332.69
2023-02-27T09:23:24.353Z,99334.84
2023-02-27T09:24:26.288Z,99337.53
2023-02-27T09:25:29.210Z,99330.69
2023-02-27T09:26:42.212Z,99341.75
2023-02-27T09:27:46.850Z,99337.59
2023-02-27T09:28:49.528Z,99335.69
2023-02-27T09:29:56.253Z,99334.28
2023-02-27T09:31:06.294Z,99340.31
2023-02-27T09:32:08.751Z,99333.03
2023-02-27T09:33:10.601Z,99338.22
2023-02-27T09:34:12.383Z,99342.56
2023-02-27T09:35:15.825Z,99332.69
2023-02-27T09:36:17.726Z,99341.06
2023-02-27T09:37:19.945Z,99340.44
2023-02-27T09:38:21.747Z,99336.41
2023-02-27T09:39:23.491Z,99341.00
2023-02-27T09:40:32.870Z,99335.34
2023-02-27T09:42:00.685Z,99343.31
2023-02-27T09:43:23.714Z,99339.59
2023-02-27T09:44:46.175Z,99342.38
2023-02-27T09:45:55.166Z,99343.84
2023-02-27T09:46:57.731Z,99345.06
2023-02-27T09:48:15.324Z,99338.13
2023-02-27T09:49:23.707Z,99342.97
2023-02-27T09:50:42.300Z,99343.00
2023-02-27T09:51:44.122Z,99335.28
2023-02-27T09:52:46.046Z,99357.84
2023-02-27T09:53:52.230Z,99342.16
2023-02-27T09:54:55.174Z,99335.03
2023-02-27T09:56:23.906Z,99343.00
2023-02-27T09:57:44.814Z,99342.19
2023-02-27T09:59:53.613Z,99345.19
2023-02-27T10:01:18.861Z,99344.59
2023-02-27T10:02:23.663Z,99353.78
2023-02-27T10:03:43.286Z,99353.56
2023-02-27T10:05:18.015Z,99351.13
2023-02-27T10:06:37.270Z,99348.81
2023-02-27T10:08:12.391Z,99339.97
2023-02-27T10:09:58.089Z,99342.16
2023-02-27T10:11:12.941Z,99342.44
2023-02-27T10:12:20.953Z,99344.56
2023-02-27T10:13:41.955Z,99342.69
2023-02-27T10:14:53.650Z,99343.47
2023-02-27T10:15:57.861Z,99342.38
2023-02-27T10:17:05.997Z,99346.44
2023-02-27T10:18:25.561Z,99352.06
2023-02-27T10:19:36.341Z,99349.94
2023-02-27T10:20:46.909Z,99346.16
2023-02-27T10:21:53.760Z,99349.13
2023-02-27T10:23:01.647Z,99350.19
2023-02-27T10:24:15.005Z,99350.97
2023-02-27T10:25:31.172Z,99347.44
2023-02-27T10:26:41.673Z,99357.41
2023-02-27T10:27:53.378Z,99350.31
2023-02-27T10:28:55.159Z,99348.25
2023-02-27T10:30:30.401Z,99357.91
2023-02-27T10:31:35.895Z,99353.88
2023-02-27T10:32:40.030Z,99360.66
2023-02-27T10:33:44.780Z,99361.28
2023-02-27T10:35:09.314Z,99361.88
2023-02-27T10:36:20.609Z,99364.31
2023-02-27T10:37:30.103Z,99356.75
2023-02-27T10:38:39.060Z,99360.81
2023-02-27T10:39:55.094Z,99357.84
2023-02-27T10:41:00.304Z,99357.00
2023-02-27T10:42:10.766Z,99340.81
2023-02-27T10:43:19.409Z,99344.88
2023-02-27T10:44:21.374Z,99349.72
2023-02-27T10:45:23.275Z,99356.19
2023-02-27T10:46:32.102Z,99359.47
2023-02-27T10:47:34.138Z,99358.09
2023-02-27T10:48:36.397Z,99356.75
2023-02-27T10:49:39.444Z,99359.16
2023-02-27T10:50:45.426Z,99358.13
2023-02-27T10:52:10.717Z,99361.03
2023-02-27T10:53:27.847Z,99359.66
2023-02-27T10:54:29.592Z,99352.34
2023-02-27T10:55:36.250Z,99357.72
2023-02-27T10:56:39.392Z,99349.06
2023-02-27T10:57:43.130Z,99349.00
2023-02-27T10:58:45.637Z,99345.72
2023-02-27T11:00:28.208Z,99352.25
2023-02-27T11:01:48.764Z,99349.13
2023-02-27T11:02:52.303Z,99359.69
2023-02-27T11:03:56.810Z,99354.91
2023-02-27T11:05:00.403Z,99352.25
2023-02-27T11:06:14.099Z,99353.69
2023-02-27T11:07:25.851Z,99353.47
2023-02-27T11:08:32.230Z,99353.63
2023-02-27T11:09:36.197Z,99362.00
2023-02-27T11:10:53.648Z,99350.88
2023-02-27T11:12:11.585Z,99361.13
2023-02-27T11:13:21.998Z,99358.19
2023-02-27T11:14:33.017Z,99359.00
2023-02-27T11:15:38.466Z,99351.16
2023-02-27T11:16:52.826Z,99337.75
2023-02-27T11:17:55.062Z,99349.91
2023-02-27T11:18:57.907Z,99341.06
2023-02-27T11:20:05.995Z,99349.69
2023-02-27T11:21:27.089Z,99331.72
2023-02-27T11:22:31.991Z,99342.66
2023-02-27T11:23:34.408Z,99338.94
2023-02-27T11:24:36.251Z,99327.50
2023-02-27T11:25:38.098Z,99335.41
2023-02-27T11:26:55.332Z,99334.09
2023-02-27T11:28:30.744Z,99346.81
2023-02-27T11:29:34.565Z,99343.22
2023-02-27T11:30:36.320Z,99332.56
2023-02-27T11:31:39.810Z,99334.25
2023-02-27T11:32:51.228Z,99333.16
2023-02-27T11:33:57.716Z,99340.75
2023-02-27T11:34:59.677Z,99331.25
2023-02-27T11:36:03.891Z,99340.41
2023-02-27T11:37:36.844Z,99324.53
2023-02-27T11:38:38.625Z,99331.41
2023-02-27T11:39:58.429Z,99325.13
2023-02-27T11:41:04.398Z,99330.66
2023-02-27T11:42:26.147Z,99333.66
2023-02-27T11:43:52.057Z,99322.78
2023-02-27T11:46:09.911Z,99336.25
2023-02-27T11:46:47.776Z,99326.47
2023-02-27T11:48:01.219Z,99319.88
2023-02-27T11:50:09.820Z,99321.59
2023-02-27T11:51:20.044Z,99315.72
2023-02-27T11:52:38.060Z,99327.63
2023-02-27T11:54:13.540Z,99322.00
2023-02-27T11:55:21.756Z,99322.41
2023-02-27T11:56:34.127Z,99316.88
